sensor_id;sensor_type;location;lat;lon;timestamp;P1;durP1;ratioP1;P2;durP2;ratioP2
55150;SDS011;41041;43.162;20.538;2023-11-21T00:02:20;34.70;;;19.48;;
55150;SDS011;41041;43.162;20.538;2023-11-21T00:04:47;32.72;;;18.08;;
55150;SDS011;41041;43.162;20.538;2023-11-21T00:07:14;31.65;;;16.83;;
55150;SDS011;41041;43.162;20.538;2023-11-21T00:09:47;33.97;;;19.08;;
55150;SDS011;41041;43.162;20.538;2023-11-21T00:12:13;35.95;;;20.90;;
55150;SDS011;41041;43.162;20.538;2023-11-21T00:14:41;32.53;;;20.10;;
55150;SDS011;41041;43.162;20.538;2023-11-21T00:17:07;31.45;;;18.88;;
55150;SDS011;41041;43.162;20.538;2023-11-21T00:19:33;34.38;;;20.42;;
55150;SDS011;41041;43.162;20.538;2023-11-21T00:22:01;37.80;;;21.25;;
55150;SDS011;41041;43.162;20.538;2023-11-21T00:24:27;35.97;;;21.40;;
55150;SDS011;41041;43.162;20.538;2023-11-21T00:26:53;36.25;;;22.05;;
55150;SDS011;41041;43.162;20.538;2023-11-21T00:29:19;41.25;;;24.15;;
55150;SDS011;41041;43.162;20.538;2023-11-21T00:31:45;43.13;;;24.38;;
55150;SDS011;41041;43.162;20.538;2023-11-21T00:34:11;46.33;;;25.35;;
55150;SDS011;41041;43.162;20.538;2023-11-21T00:36:37;47.53;;;29.27;;
55150;SDS011;41041;43.162;20.538;2023-11-21T00:39:04;39.97;;;21.17;;
55150;SDS011;41041;43.162;20.538;2023-11-21T00:41:31;34.78;;;20.67;;
55150;SDS011;41041;43.162;20.538;2023-11-21T00:43:57;32.05;;;19.80;;
55150;SDS011;41041;43.162;20.538;2023-11-21T00:46:24;36.40;;;22.05;;
55150;SDS011;41041;43.162;20.538;2023-11-21T00:48:53;49.65;;;27.42;;
55150;SDS011;41041;43.162;20.538;2023-11-21T00:51:19;33.58;;;19.75;;
55150;SDS011;41041;43.162;20.538;2023-11-21T00:53:46;37.33;;;22.65;;
55150;SDS011;41041;43.162;20.538;2023-11-21T00:56:12;37.33;;;21.35;;
55150;SDS011;41041;43.162;20.538;2023-11-21T00:58:39;54.88;;;31.73;;
55150;SDS011;41041;43.162;20.538;2023-11-21T01:01:08;83.50;;;49.75;;
55150;SDS011;41041;43.162;20.538;2023-11-21T01:03:35;69.45;;;40.00;;
55150;SDS011;41041;43.162;20.538;2023-11-21T01:06:01;64.50;;;38.72;;
55150;SDS011;41041;43.162;20.538;2023-11-21T01:08:27;66.80;;;39.75;;
55150;SDS011;41041;43.162;20.538;2023-11-21T01:10:53;65.28;;;39.58;;
55150;SDS011;41041;43.162;20.538;2023-11-21T01:13:20;67.18;;;38.88;;
55150;SDS011;41041;43.162;20.538;2023-11-21T01:15:46;67.70;;;38.97;;
55150;SDS011;41041;43.162;20.538;2023-11-21T01:18:12;68.72;;;39.78;;
55150;SDS011;41041;43.162;20.538;2023-11-21T01:20:38;76.55;;;41.78;;
55150;SDS011;41041;43.162;20.538;2023-11-21T01:23:06;73.13;;;43.80;;
55150;SDS011;41041;43.162;20.538;2023-11-21T01:25:32;78.22;;;45.83;;
55150;SDS011;41041;43.162;20.538;2023-11-21T01:27:58;80.72;;;48.33;;
55150;SDS011;41041;43.162;20.538;2023-11-21T01:30:24;77.25;;;44.25;;
55150;SDS011;41041;43.162;20.538;2023-11-21T01:32:50;73.22;;;41.30;;
55150;SDS011;41041;43.162;20.538;2023-11-21T01:35:16;75.85;;;42.85;;
55150;SDS011;41041;43.162;20.538;2023-11-21T01:37:42;71.32;;;42.50;;
55150;SDS011;41041;43.162;20.538;2023-11-21T01:40:08;77.53;;;43.83;;
55150;SDS011;41041;43.162;20.538;2023-11-21T01:42:38;71.95;;;40.30;;
55150;SDS011;41041;43.162;20.538;2023-11-21T01:45:05;73.95;;;43.55;;
55150;SDS011;41041;43.162;20.538;2023-11-21T01:47:32;78.60;;;44.97;;
55150;SDS011;41041;43.162;20.538;2023-11-21T01:49:59;78.70;;;43.85;;
55150;SDS011;41041;43.162;20.538;2023-11-21T01:52:25;76.13;;;44.15;;
55150;SDS011;41041;43.162;20.538;2023-11-21T01:54:51;78.00;;;43.03;;
55150;SDS011;41041;43.162;20.538;2023-11-21T01:57:19;80.75;;;46.28;;
55150;SDS011;41041;43.162;20.538;2023-11-21T01:59:45;77.22;;;44.35;;
55150;SDS011;41041;43.162;20.538;2023-11-21T02:02:15;84.32;;;47.67;;
55150;SDS011;41041;43.162;20.538;2023-11-21T02:04:41;75.95;;;44.63;;
55150;SDS011;41041;43.162;20.538;2023-11-21T02:07:07;76.15;;;43.78;;
55150;SDS011;41041;43.162;20.538;2023-11-21T02:09:35;72.20;;;43.85;;
55150;SDS011;41041;43.162;20.538;2023-11-21T02:12:03;75.53;;;43.22;;
55150;SDS011;41041;43.162;20.538;2023-11-21T02:14:30;79.50;;;45.28;;
55150;SDS011;41041;43.162;20.538;2023-11-21T02:16:57;73.55;;;43.45;;
55150;SDS011;41041;43.162;20.538;2023-11-21T02:19:23;78.40;;;43.17;;
55150;SDS011;41041;43.162;20.538;2023-11-21T02:21:54;76.13;;;42.45;;
55150;SDS011;41041;43.162;20.538;2023-11-21T02:24:24;62.63;;;37.38;;
55150;SDS011;41041;43.162;20.538;2023-11-21T02:26:50;69.32;;;38.67;;
55150;SDS011;41041;43.162;20.538;2023-11-21T02:29:17;72.95;;;42.70;;
55150;SDS011;41041;43.162;20.538;2023-11-21T02:31:46;45.80;;;25.88;;
55150;SDS011;41041;43.162;20.538;2023-11-21T02:34:16;38.10;;;23.00;;
55150;SDS011;41041;43.162;20.538;2023-11-21T02:36:43;44.75;;;25.25;;
55150;SDS011;41041;43.162;20.538;2023-11-21T02:39:12;62.70;;;36.03;;
55150;SDS011;41041;43.162;20.538;2023-11-21T02:41:39;71.68;;;42.30;;
55150;SDS011;41041;43.162;20.538;2023-11-21T02:44:05;70.45;;;44.42;;
55150;SDS011;41041;43.162;20.538;2023-11-21T02:46:32;78.13;;;46.70;;
55150;SDS011;41041;43.162;20.538;2023-11-21T02:48:59;76.47;;;43.25;;
55150;SDS011;41041;43.162;20.538;2023-11-21T02:51:25;78.35;;;44.25;;
55150;SDS011;41041;43.162;20.538;2023-11-21T02:53:52;79.03;;;43.85;;
55150;SDS011;41041;43.162;20.538;2023-11-21T02:56:18;73.78;;;43.53;;
55150;SDS011;41041;43.162;20.538;2023-11-21T02:58:44;68.03;;;40.60;;
55150;SDS011;41041;43.162;20.538;2023-11-21T03:01:10;75.15;;;41.85;;
55150;SDS011;41041;43.162;20.538;2023-11-21T03:03:37;76.80;;;42.20;;
55150;SDS011;41041;43.162;20.538;2023-11-21T03:06:08;67.55;;;41.30;;
55150;SDS011;41041;43.162;20.538;2023-11-21T03:08:34;69.07;;;40.10;;
55150;SDS011;41041;43.162;20.538;2023-11-21T03:11:01;68.70;;;38.70;;
55150;SDS011;41041;43.162;20.538;2023-11-21T03:13:30;62.92;;;36.85;;
55150;SDS011;41041;43.162;20.538;2023-11-21T03:15:56;55.47;;;32.22;;
55150;SDS011;41041;43.162;20.538;2023-11-21T03:18:22;51.67;;;29.30;;
55150;SDS011;41041;43.162;20.538;2023-11-21T03:20:48;42.35;;;26.40;;
55150;SDS011;41041;43.162;20.538;2023-11-21T03:23:14;42.28;;;25.42;;
55150;SDS011;41041;43.162;20.538;2023-11-21T03:25:40;41.45;;;25.95;;
55150;SDS011;41041;43.162;20.538;2023-11-21T03:28:06;41.20;;;25.40;;
55150;SDS011;41041;43.162;20.538;2023-11-21T03:30:33;38.97;;;24.38;;
55150;SDS011;41041;43.162;20.538;2023-11-21T03:32:59;39.88;;;23.67;;
55150;SDS011;41041;43.162;20.538;2023-11-21T03:35:26;40.47;;;24.88;;
55150;SDS011;41041;43.162;20.538;2023-11-21T03:37:53;42.20;;;22.65;;
55150;SDS011;41041;43.162;20.538;2023-11-21T03:40:19;48.15;;;27.70;;
55150;SDS011;41041;43.162;20.538;2023-11-21T03:42:48;46.17;;;25.60;;
55150;SDS011;41041;43.162;20.538;2023-11-21T03:45:14;46.33;;;26.63;;
55150;SDS011;41041;43.162;20.538;2023-11-21T03:47:44;45.03;;;25.25;;
55150;SDS011;41041;43.162;20.538;2023-11-21T03:50:10;42.67;;;24.33;;
55150;SDS011;41041;43.162;20.538;2023-11-21T03:52:37;42.85;;;24.98;;
55150;SDS011;41041;43.162;20.538;2023-11-21T03:55:03;38.83;;;23.05;;
55150;SDS011;41041;43.162;20.538;2023-11-21T03:57:30;43.17;;;24.13;;
55150;SDS011;41041;43.162;20.538;2023-11-21T03:59:59;52.40;;;29.30;;
55150;SDS011;41041;43.162;20.538;2023-11-21T04:02:25;44.38;;;25.98;;
55150;SDS011;41041;43.162;20.538;2023-11-21T04:04:53;43.80;;;26.20;;
55150;SDS011;41041;43.162;20.538;2023-11-21T04:07:19;47.97;;;25.17;;
55150;SDS011;41041;43.162;20.538;2023-11-21T04:09:47;40.17;;;24.27;;
55150;SDS011;41041;43.162;20.538;2023-11-21T04:12:13;35.60;;;22.55;;
55150;SDS011;41041;43.162;20.538;2023-11-21T04:14:39;37.38;;;23.00;;
55150;SDS011;41041;43.162;20.538;2023-11-21T04:17:05;40.92;;;23.52;;
55150;SDS011;41041;43.162;20.538;2023-11-21T04:19:32;45.42;;;25.45;;
55150;SDS011;41041;43.162;20.538;2023-11-21T04:21:58;40.33;;;24.52;;
55150;SDS011;41041;43.162;20.538;2023-11-21T04:24:24;46.10;;;25.85;;
55150;SDS011;41041;43.162;20.538;2023-11-21T04:26:50;40.78;;;20.90;;
55150;SDS011;41041;43.162;20.538;2023-11-21T04:29:16;22.83;;;14.32;;
55150;SDS011;41041;43.162;20.538;2023-11-21T04:31:42;34.15;;;19.83;;
55150;SDS011;41041;43.162;20.538;2023-11-21T04:34:08;34.03;;;18.80;;
55150;SDS011;41041;43.162;20.538;2023-11-21T04:36:34;31.33;;;17.55;;
55150;SDS011;41041;43.162;20.538;2023-11-21T04:39:00;34.00;;;18.73;;
55150;SDS011;41041;43.162;20.538;2023-11-21T04:41:27;28.77;;;16.63;;
55150;SDS011;41041;43.162;20.538;2023-11-21T04:43:56;26.65;;;15.57;;
55150;SDS011;41041;43.162;20.538;2023-11-21T04:46:23;26.13;;;14.57;;
55150;SDS011;41041;43.162;20.538;2023-11-21T04:48:49;25.10;;;15.70;;
55150;SDS011;41041;43.162;20.538;2023-11-21T04:51:23;31.50;;;16.60;;
55150;SDS011;41041;43.162;20.538;2023-11-21T04:53:50;27.02;;;15.73;;
55150;SDS011;41041;43.162;20.538;2023-11-21T04:56:16;28.45;;;15.77;;
55150;SDS011;41041;43.162;20.538;2023-11-21T04:58:43;31.50;;;17.13;;
55150;SDS011;41041;43.162;20.538;2023-11-21T05:01:09;33.70;;;18.42;;
55150;SDS011;41041;43.162;20.538;2023-11-21T05:03:38;33.03;;;18.40;;
55150;SDS011;41041;43.162;20.538;2023-11-21T05:06:04;34.40;;;19.42;;
55150;SDS011;41041;43.162;20.538;2023-11-21T05:08:30;40.70;;;22.00;;
55150;SDS011;41041;43.162;20.538;2023-11-21T05:13:26;38.38;;;20.15;;
55150;SDS011;41041;43.162;20.538;2023-11-21T05:15:53;33.47;;;18.77;;
55150;SDS011;41041;43.162;20.538;2023-11-21T05:18:21;32.80;;;19.05;;
55150;SDS011;41041;43.162;20.538;2023-11-21T05:20:47;30.50;;;18.88;;
55150;SDS011;41041;43.162;20.538;2023-11-21T05:23:13;31.05;;;19.08;;
55150;SDS011;41041;43.162;20.538;2023-11-21T05:25:40;26.30;;;16.52;;
55150;SDS011;41041;43.162;20.538;2023-11-21T05:28:06;35.22;;;18.70;;
55150;SDS011;41041;43.162;20.538;2023-11-21T05:30:32;23.90;;;14.05;;
55150;SDS011;41041;43.162;20.538;2023-11-21T05:32:59;30.15;;;15.10;;
55150;SDS011;41041;43.162;20.538;2023-11-21T05:35:25;31.42;;;14.35;;
55150;SDS011;41041;43.162;20.538;2023-11-21T05:37:51;20.58;;;12.13;;
55150;SDS011;41041;43.162;20.538;2023-11-21T05:40:17;210.73;;;99.30;;
55150;SDS011;41041;43.162;20.538;2023-11-21T05:42:44;193.25;;;99.15;;
55150;SDS011;41041;43.162;20.538;2023-11-21T05:45:15;94.93;;;47.28;;
55150;SDS011;41041;43.162;20.538;2023-11-21T05:47:44;54.13;;;29.08;;
55150;SDS011;41041;43.162;20.538;2023-11-21T05:50:14;34.92;;;20.65;;
55150;SDS011;41041;43.162;20.538;2023-11-21T05:52:41;22.13;;;13.23;;
55150;SDS011;41041;43.162;20.538;2023-11-21T05:55:07;35.30;;;18.95;;
55150;SDS011;41041;43.162;20.538;2023-11-21T05:57:34;32.92;;;18.25;;
55150;SDS011;41041;43.162;20.538;2023-11-21T06:00:04;34.83;;;19.33;;
55150;SDS011;41041;43.162;20.538;2023-11-21T06:02:40;34.90;;;20.73;;
55150;SDS011;41041;43.162;20.538;2023-11-21T06:05:06;56.65;;;27.02;;
55150;SDS011;41041;43.162;20.538;2023-11-21T06:07:33;70.22;;;33.70;;
55150;SDS011;41041;43.162;20.538;2023-11-21T06:10:00;64.47;;;30.30;;
55150;SDS011;41041;43.162;20.538;2023-11-21T06:12:27;49.10;;;25.55;;
55150;SDS011;41041;43.162;20.538;2023-11-21T06:14:54;45.80;;;23.10;;
55150;SDS011;41041;43.162;20.538;2023-11-21T06:17:22;43.20;;;22.63;;
55150;SDS011;41041;43.162;20.538;2023-11-21T06:19:50;38.83;;;22.60;;
55150;SDS011;41041;43.162;20.538;2023-11-21T06:22:17;41.05;;;22.90;;
55150;SDS011;41041;43.162;20.538;2023-11-21T06:24:44;44.22;;;23.40;;
55150;SDS011;41041;43.162;20.538;2023-11-21T06:27:10;42.92;;;23.90;;
55150;SDS011;41041;43.162;20.538;2023-11-21T06:29:36;43.00;;;24.95;;
55150;SDS011;41041;43.162;20.538;2023-11-21T06:32:07;46.92;;;25.10;;
55150;SDS011;41041;43.162;20.538;2023-11-21T06:34:33;45.28;;;24.02;;
55150;SDS011;41041;43.162;20.538;2023-11-21T06:36:59;44.90;;;25.10;;
55150;SDS011;41041;43.162;20.538;2023-11-21T06:39:25;52.58;;;26.65;;
55150;SDS011;41041;43.162;20.538;2023-11-21T06:41:52;51.83;;;27.23;;
55150;SDS011;41041;43.162;20.538;2023-11-21T06:44:19;52.25;;;25.48;;
55150;SDS011;41041;43.162;20.538;2023-11-21T06:46:59;47.83;;;25.40;;
55150;SDS011;41041;43.162;20.538;2023-11-21T06:49:26;46.83;;;27.17;;
55150;SDS011;41041;43.162;20.538;2023-11-21T06:51:52;51.67;;;26.88;;
55150;SDS011;41041;43.162;20.538;2023-11-21T06:54:19;52.42;;;28.73;;
55150;SDS011;41041;43.162;20.538;2023-11-21T06:56:46;82.80;;;41.53;;
55150;SDS011;41041;43.162;20.538;2023-11-21T06:59:12;61.55;;;33.40;;
55150;SDS011;41041;43.162;20.538;2023-11-21T07:01:38;57.65;;;29.90;;
55150;SDS011;41041;43.162;20.538;2023-11-21T07:04:06;55.15;;;29.60;;
55150;SDS011;41041;43.162;20.538;2023-11-21T07:06:34;61.25;;;32.92;;
55150;SDS011;41041;43.162;20.538;2023-11-21T07:09:01;58.75;;;31.38;;
55150;SDS011;41041;43.162;20.538;2023-11-21T07:11:28;58.30;;;33.33;;
55150;SDS011;41041;43.162;20.538;2023-11-21T07:13:54;61.88;;;34.50;;
55150;SDS011;41041;43.162;20.538;2023-11-21T07:16:20;58.63;;;32.33;;
55150;SDS011;41041;43.162;20.538;2023-11-21T07:18:47;56.60;;;29.20;;
55150;SDS011;41041;43.162;20.538;2023-11-21T07:21:14;55.30;;;29.95;;
55150;SDS011;41041;43.162;20.538;2023-11-21T07:23:41;53.42;;;30.13;;
55150;SDS011;41041;43.162;20.538;2023-11-21T07:26:08;53.30;;;29.50;;
55150;SDS011;41041;43.162;20.538;2023-11-21T07:28:35;50.85;;;28.33;;
55150;SDS011;41041;43.162;20.538;2023-11-21T07:31:01;44.53;;;26.50;;
55150;SDS011;41041;43.162;20.538;2023-11-21T07:33:28;46.65;;;27.70;;
55150;SDS011;41041;43.162;20.538;2023-11-21T07:36:01;50.00;;;29.40;;
55150;SDS011;41041;43.162;20.538;2023-11-21T07:38:27;50.47;;;28.63;;
55150;SDS011;41041;43.162;20.538;2023-11-21T07:40:53;46.35;;;28.63;;
55150;SDS011;41041;43.162;20.538;2023-11-21T07:43:19;50.47;;;29.30;;
55150;SDS011;41041;43.162;20.538;2023-11-21T07:45:45;55.30;;;33.13;;
55150;SDS011;41041;43.162;20.538;2023-11-21T07:48:12;73.75;;;42.35;;
55150;SDS011;41041;43.162;20.538;2023-11-21T07:50:38;81.90;;;48.25;;
55150;SDS011;41041;43.162;20.538;2023-11-21T07:53:04;177.38;;;102.15;;
55150;SDS011;41041;43.162;20.538;2023-11-21T07:55:30;135.23;;;78.00;;
55150;SDS011;41041;43.162;20.538;2023-11-21T07:57:57;120.63;;;71.85;;
55150;SDS011;41041;43.162;20.538;2023-11-21T08:00:23;95.70;;;53.70;;
55150;SDS011;41041;43.162;20.538;2023-11-21T08:02:49;88.15;;;52.25;;
55150;SDS011;41041;43.162;20.538;2023-11-21T08:05:15;88.75;;;51.75;;
55150;SDS011;41041;43.162;20.538;2023-11-21T08:07:47;101.10;;;57.22;;
55150;SDS011;41041;43.162;20.538;2023-11-21T08:10:13;96.75;;;59.38;;
55150;SDS011;41041;43.162;20.538;2023-11-21T08:12:39;96.10;;;60.40;;
55150;SDS011;41041;43.162;20.538;2023-11-21T08:15:04;98.38;;;60.15;;
55150;SDS011;41041;43.162;20.538;2023-11-21T08:17:31;102.63;;;62.92;;
55150;SDS011;41041;43.162;20.538;2023-11-21T08:19:58;104.63;;;62.33;;
55150;SDS011;41041;43.162;20.538;2023-11-21T08:22:23;99.18;;;60.60;;
55150;SDS011;41041;43.162;20.538;2023-11-21T08:24:50;98.63;;;61.70;;
55150;SDS011;41041;43.162;20.538;2023-11-21T08:27:16;94.13;;;57.33;;
55150;SDS011;41041;43.162;20.538;2023-11-21T08:29:42;94.18;;;57.63;;
55150;SDS011;41041;43.162;20.538;2023-11-21T08:32:09;97.22;;;59.47;;
55150;SDS011;41041;43.162;20.538;2023-11-21T08:34:34;194.60;;;103.15;;
55150;SDS011;41041;43.162;20.538;2023-11-21T08:39:39;93.60;;;55.30;;
55150;SDS011;41041;43.162;20.538;2023-11-21T08:42:14;104.75;;;67.78;;
55150;SDS011;41041;43.162;20.538;2023-11-21T08:44:40;105.88;;;69.60;;
55150;SDS011;41041;43.162;20.538;2023-11-21T08:47:18;100.25;;;62.40;;
55150;SDS011;41041;43.162;20.538;2023-11-21T08:49:43;95.30;;;58.78;;
55150;SDS011;41041;43.162;20.538;2023-11-21T08:52:10;95.22;;;57.90;;
55150;SDS011;41041;43.162;20.538;2023-11-21T08:54:37;100.90;;;56.38;;
55150;SDS011;41041;43.162;20.538;2023-11-21T08:57:02;97.63;;;58.72;;
55150;SDS011;41041;43.162;20.538;2023-11-21T08:59:28;96.68;;;59.25;;
55150;SDS011;41041;43.162;20.538;2023-11-21T09:01:54;144.50;;;90.18;;
55150;SDS011;41041;43.162;20.538;2023-11-21T09:04:20;117.18;;;72.22;;
55150;SDS011;41041;43.162;20.538;2023-11-21T09:06:46;107.10;;;64.57;;
55150;SDS011;41041;43.162;20.538;2023-11-21T09:09:19;107.90;;;59.15;;
55150;SDS011;41041;43.162;20.538;2023-11-21T09:11:44;95.38;;;60.28;;
55150;SDS011;41041;43.162;20.538;2023-11-21T09:14:11;97.75;;;59.28;;
55150;SDS011;41041;43.162;20.538;2023-11-21T09:16:40;98.75;;;61.63;;
55150;SDS011;41041;43.162;20.538;2023-11-21T09:19:06;99.35;;;64.47;;
55150;SDS011;41041;43.162;20.538;2023-11-21T09:21:32;103.50;;;65.13;;
55150;SDS011;41041;43.162;20.538;2023-11-21T09:23:59;95.50;;;58.15;;
55150;SDS011;41041;43.162;20.538;2023-11-21T09:29:29;101.50;;;61.85;;
55150;SDS011;41041;43.162;20.538;2023-11-21T09:31:55;98.43;;;59.50;;
55150;SDS011;41041;43.162;20.538;2023-11-21T09:34:24;113.57;;;69.43;;
55150;SDS011;41041;43.162;20.538;2023-11-21T09:36:52;125.63;;;76.53;;
55150;SDS011;41041;43.162;20.538;2023-11-21T09:39:18;125.22;;;78.65;;
55150;SDS011;41041;43.162;20.538;2023-11-21T09:41:51;127.18;;;81.45;;
55150;SDS011;41041;43.162;20.538;2023-11-21T09:53:17;130.10;;;83.18;;
55150;SDS011;41041;43.162;20.538;2023-11-21T09:55:44;157.10;;;95.88;;
55150;SDS011;41041;43.162;20.538;2023-11-21T09:58:11;148.43;;;91.95;;
55150;SDS011;41041;43.162;20.538;2023-11-21T10:00:41;153.90;;;99.78;;
55150;SDS011;41041;43.162;20.538;2023-11-21T10:03:08;159.82;;;101.57;;
55150;SDS011;41041;43.162;20.538;2023-11-21T10:05:35;171.98;;;112.75;;
55150;SDS011;41041;43.162;20.538;2023-11-21T10:08:03;151.13;;;99.25;;
55150;SDS011;41041;43.162;20.538;2023-11-21T10:10:32;161.98;;;105.03;;
55150;SDS011;41041;43.162;20.538;2023-11-21T10:13:01;168.38;;;106.45;;
55150;SDS011;41041;43.162;20.538;2023-11-21T10:15:32;139.98;;;90.75;;
55150;SDS011;41041;43.162;20.538;2023-11-21T10:20:51;179.02;;;107.70;;
55150;SDS011;41041;43.162;20.538;2023-11-21T10:23:19;128.45;;;84.90;;
55150;SDS011;41041;43.162;20.538;2023-11-21T10:25:46;133.55;;;85.57;;
55150;SDS011;41041;43.162;20.538;2023-11-21T10:28:11;120.07;;;80.50;;
55150;SDS011;41041;43.162;20.538;2023-11-21T10:30:38;123.45;;;79.50;;
55150;SDS011;41041;43.162;20.538;2023-11-21T10:33:05;140.35;;;89.90;;
55150;SDS011;41041;43.162;20.538;2023-11-21T10:35:45;128.13;;;83.35;;
55150;SDS011;41041;43.162;20.538;2023-11-21T10:38:15;111.65;;;73.05;;
55150;SDS011;41041;43.162;20.538;2023-11-21T10:40:46;107.65;;;69.03;;
55150;SDS011;41041;43.162;20.538;2023-11-21T10:43:13;92.82;;;58.85;;
55150;SDS011;41041;43.162;20.538;2023-11-21T10:45:48;94.28;;;60.03;;
55150;SDS011;41041;43.162;20.538;2023-11-21T10:48:14;79.07;;;51.78;;
55150;SDS011;41041;43.162;20.538;2023-11-21T10:50:40;76.93;;;49.67;;
55150;SDS011;41041;43.162;20.538;2023-11-21T10:53:07;97.15;;;60.85;;
55150;SDS011;41041;43.162;20.538;2023-11-21T10:55:33;101.65;;;62.60;;
55150;SDS011;41041;43.162;20.538;2023-11-21T10:58:03;78.75;;;51.08;;
55150;SDS011;41041;43.162;20.538;2023-11-21T11:00:30;81.85;;;52.45;;
55150;SDS011;41041;43.162;20.538;2023-11-21T11:02:57;72.60;;;45.90;;
55150;SDS011;41041;43.162;20.538;2023-11-21T11:05:25;71.82;;;46.13;;
55150;SDS011;41041;43.162;20.538;2023-11-21T11:08:02;74.85;;;46.30;;
55150;SDS011;41041;43.162;20.538;2023-11-21T11:10:31;73.13;;;46.58;;
55150;SDS011;41041;43.162;20.538;2023-11-21T11:12:57;64.82;;;42.97;;
55150;SDS011;41041;43.162;20.538;2023-11-21T11:15:24;72.57;;;46.08;;
55150;SDS011;41041;43.162;20.538;2023-11-21T11:17:51;67.32;;;43.72;;
55150;SDS011;41041;43.162;20.538;2023-11-21T11:20:33;56.70;;;35.40;;
55150;SDS011;41041;43.162;20.538;2023-11-21T11:25:49;50.95;;;34.55;;
55150;SDS011;41041;43.162;20.538;2023-11-21T11:28:22;53.53;;;35.33;;
55150;SDS011;41041;43.162;20.538;2023-11-21T11:31:03;59.17;;;38.50;;
55150;SDS011;41041;43.162;20.538;2023-11-21T11:33:43;48.03;;;32.05;;
55150;SDS011;41041;43.162;20.538;2023-11-21T11:38:50;57.85;;;36.60;;
55150;SDS011;41041;43.162;20.538;2023-11-21T11:41:27;59.08;;;38.08;;
55150;SDS011;41041;43.162;20.538;2023-11-21T11:43:54;59.22;;;36.78;;
55150;SDS011;41041;43.162;20.538;2023-11-21T11:46:20;62.47;;;38.80;;
55150;SDS011;41041;43.162;20.538;2023-11-21T11:49:06;59.03;;;37.08;;
55150;SDS011;41041;43.162;20.538;2023-11-21T11:51:33;50.80;;;33.90;;
55150;SDS011;41041;43.162;20.538;2023-11-21T11:54:00;36.67;;;23.35;;
55150;SDS011;41041;43.162;20.538;2023-11-21T11:56:33;48.80;;;31.20;;
55150;SDS011;41041;43.162;20.538;2023-11-21T11:59:02;62.33;;;40.85;;
55150;SDS011;41041;43.162;20.538;2023-11-21T12:01:29;50.85;;;32.72;;
55150;SDS011;41041;43.162;20.538;2023-11-21T12:06:45;49.42;;;31.17;;
55150;SDS011;41041;43.162;20.538;2023-11-21T12:09:18;46.92;;;30.20;;
55150;SDS011;41041;43.162;20.538;2023-11-21T12:11:45;46.30;;;30.45;;
55150;SDS011;41041;43.162;20.538;2023-11-21T12:14:11;46.88;;;31.38;;
55150;SDS011;41041;43.162;20.538;2023-11-21T12:16:38;49.63;;;31.80;;
55150;SDS011;41041;43.162;20.538;2023-11-21T12:19:05;46.92;;;31.02;;
55150;SDS011;41041;43.162;20.538;2023-11-21T12:21:31;43.80;;;28.67;;
55150;SDS011;41041;43.162;20.538;2023-11-21T12:24:00;45.70;;;30.05;;
55150;SDS011;41041;43.162;20.538;2023-11-21T12:26:26;52.50;;;33.42;;
55150;SDS011;41041;43.162;20.538;2023-11-21T12:28:53;49.55;;;33.20;;
55150;SDS011;41041;43.162;20.538;2023-11-21T12:31:22;60.15;;;40.30;;
55150;SDS011;41041;43.162;20.538;2023-11-21T12:33:48;63.75;;;41.22;;
55150;SDS011;41041;43.162;20.538;2023-11-21T12:39:18;72.80;;;46.22;;
55150;SDS011;41041;43.162;20.538;2023-11-21T12:41:47;76.95;;;45.60;;
55150;SDS011;41041;43.162;20.538;2023-11-21T12:44:13;70.43;;;45.80;;
55150;SDS011;41041;43.162;20.538;2023-11-21T12:46:41;73.97;;;47.97;;
55150;SDS011;41041;43.162;20.538;2023-11-21T12:49:07;81.93;;;48.67;;
55150;SDS011;41041;43.162;20.538;2023-11-21T12:51:35;78.63;;;48.22;;
55150;SDS011;41041;43.162;20.538;2023-11-21T12:54:01;77.47;;;50.03;;
55150;SDS011;41041;43.162;20.538;2023-11-21T12:56:27;69.25;;;44.97;;
55150;SDS011;41041;43.162;20.538;2023-11-21T12:58:53;73.30;;;47.35;;
55150;SDS011;41041;43.162;20.538;2023-11-21T13:01:24;77.00;;;49.00;;
55150;SDS011;41041;43.162;20.538;2023-11-21T13:07:03;95.20;;;56.85;;
55150;SDS011;41041;43.162;20.538;2023-11-21T13:09:37;88.30;;;54.03;;
55150;SDS011;41041;43.162;20.538;2023-11-21T13:15:06;82.57;;;54.40;;
55150;SDS011;41041;43.162;20.538;2023-11-21T13:17:33;79.28;;;52.47;;
55150;SDS011;41041;43.162;20.538;2023-11-21T13:19:59;86.00;;;56.60;;
55150;SDS011;41041;43.162;20.538;2023-11-21T13:22:30;104.10;;;65.72;;
55150;SDS011;41041;43.162;20.538;2023-11-21T13:24:59;81.97;;;53.22;;
55150;SDS011;41041;43.162;20.538;2023-11-21T13:27:25;81.32;;;54.80;;
55150;SDS011;41041;43.162;20.538;2023-11-21T13:29:51;72.68;;;48.22;;
55150;SDS011;41041;43.162;20.538;2023-11-21T13:32:20;64.57;;;43.17;;
55150;SDS011;41041;43.162;20.538;2023-11-21T13:40:54;73.45;;;47.58;;
55150;SDS011;41041;43.162;20.538;2023-11-21T13:43:22;58.08;;;37.28;;
55150;SDS011;41041;43.162;20.538;2023-11-21T13:45:50;55.55;;;37.75;;
55150;SDS011;41041;43.162;20.538;2023-11-21T13:48:24;52.88;;;36.72;;
55150;SDS011;41041;43.162;20.538;2023-11-21T13:51:02;54.47;;;37.22;;
55150;SDS011;41041;43.162;20.538;2023-11-21T13:53:44;55.13;;;37.95;;
55150;SDS011;41041;43.162;20.538;2023-11-21T13:56:13;81.60;;;54.35;;
55150;SDS011;41041;43.162;20.538;2023-11-21T13:58:44;76.53;;;49.55;;
55150;SDS011;41041;43.162;20.538;2023-11-21T14:04:20;72.15;;;47.90;;
55150;SDS011;41041;43.162;20.538;2023-11-21T14:07:00;67.63;;;45.03;;
55150;SDS011;41041;43.162;20.538;2023-11-21T14:09:36;94.53;;;61.13;;
55150;SDS011;41041;43.162;20.538;2023-11-21T14:15:12;93.20;;;61.60;;
55150;SDS011;41041;43.162;20.538;2023-11-21T14:17:42;88.25;;;60.58;;
55150;SDS011;41041;43.162;20.538;2023-11-21T14:20:08;91.38;;;62.25;;
55150;SDS011;41041;43.162;20.538;2023-11-21T14:22:56;86.68;;;58.58;;
55150;SDS011;41041;43.162;20.538;2023-11-21T14:25:22;86.63;;;58.30;;
55150;SDS011;41041;43.162;20.538;2023-11-21T14:27:49;83.97;;;55.80;;
55150;SDS011;41041;43.162;20.538;2023-11-21T14:30:15;89.90;;;59.53;;
55150;SDS011;41041;43.162;20.538;2023-11-21T14:32:44;98.00;;;64.45;;
55150;SDS011;41041;43.162;20.538;2023-11-21T14:35:10;94.90;;;61.33;;
55150;SDS011;41041;43.162;20.538;2023-11-21T14:37:36;90.00;;;59.25;;
55150;SDS011;41041;43.162;20.538;2023-11-21T14:40:02;87.43;;;56.42;;
55150;SDS011;41041;43.162;20.538;2023-11-21T14:42:32;91.50;;;61.00;;
55150;SDS011;41041;43.162;20.538;2023-11-21T14:44:59;91.57;;;61.85;;
55150;SDS011;41041;43.162;20.538;2023-11-21T14:47:29;89.38;;;57.85;;
55150;SDS011;41041;43.162;20.538;2023-11-21T14:49:55;79.20;;;53.70;;
55150;SDS011;41041;43.162;20.538;2023-11-21T14:52:24;76.93;;;53.35;;
55150;SDS011;41041;43.162;20.538;2023-11-21T14:54:53;85.90;;;55.40;;
55150;SDS011;41041;43.162;20.538;2023-11-21T14:57:39;78.25;;;53.63;;
55150;SDS011;41041;43.162;20.538;2023-11-21T15:00:05;96.75;;;63.38;;